ELY465 LCLK-LLBG
Flight info
| Callsign | ELY465 |
|---|---|
| Flight time | N/A |
| Altitude | 27000 |
| Route | EMEDA DCT TUZIB L189 ZUKKO |
| Aircraft | B738/M-SDE2E3FGHIRWXY/LB1 |
Departure
| Time | 2026-04-30 19:59 |
|---|---|
| Airport | Larnaca International Airport (LCLK) |
Arrival
| Time | N/A |
|---|---|
| Airport | Ben Gurion International Airport (LLBG) |
| Time | Latitude | Longitude | Altitude | Speed | Heading |
|---|---|---|---|---|---|
| 2026-04-30 18:48 | 34.86945 | 33.61137 | 19 ft | 0 kts | 230° |
| 2026-04-30 19:37 | 34.86946 | 33.61139 | 19 ft | 1 kts | 230° |
| 2026-04-30 19:37 | 34.86958 | 33.61155 | 19 ft | 3 kts | 224° |
| 2026-04-30 19:38 | 34.86973 | 33.61171 | 21 ft | 3 kts | 216° |
| 2026-04-30 19:38 | 34.86990 | 33.61184 | 22 ft | 3 kts | 204° |
| 2026-04-30 19:38 | 34.87009 | 33.61193 | 23 ft | 3 kts | 188° |
| 2026-04-30 19:38 | 34.87028 | 33.61193 | 21 ft | 3 kts | 162° |
| 2026-04-30 19:39 | 34.87041 | 33.61186 | 23 ft | 1 kts | 136° |
| 2026-04-30 19:39 | 34.87042 | 33.61185 | 23 ft | 1 kts | 135° |
| 2026-04-30 19:56 | 34.87029 | 33.61200 | 20 ft | 9 kts | 135° |
| 2026-04-30 19:56 | 34.86950 | 33.61289 | 19 ft | 19 kts | 155° |
| 2026-04-30 19:56 | 34.86836 | 33.61236 | 20 ft | 19 kts | 221° |
| 2026-04-30 19:57 | 34.86728 | 33.61107 | 19 ft | 23 kts | 227° |
| 2026-04-30 19:57 | 34.86583 | 33.61058 | 20 ft | 22 kts | 214° |
| 2026-04-30 19:57 | 34.86486 | 33.61092 | 20 ft | 13 kts | 105° |
| 2026-04-30 19:57 | 34.86484 | 33.61200 | 21 ft | 13 kts | 89° |
| 2026-04-30 19:58 | 34.86490 | 33.61304 | 21 ft | 12 kts | 68° |
| 2026-04-30 19:58 | 34.86497 | 33.61315 | 21 ft | 0 kts | 46° |
| 2026-04-30 19:58 | 34.86497 | 33.61316 | 21 ft | 1 kts | 46° |
| 2026-04-30 19:58 | 34.86646 | 33.61503 | 19 ft | 65 kts | 45° |
| 2026-04-30 19:59 | 34.87123 | 33.62083 | 22 ft | 126 kts | 45° |
| 2026-04-30 19:59 | 34.87871 | 33.62991 | 93 ft | 169 kts | 45° |
| 2026-04-30 19:59 | 34.89545 | 33.65035 | 1323 ft | 177 kts | 44° |
| 2026-04-30 20:00 | 34.90433 | 33.66085 | 1937 ft | 186 kts | 37° |
| 2026-04-30 20:00 | 34.91583 | 33.67012 | 2140 ft | 210 kts | 45° |
| 2026-04-30 20:00 | 34.92196 | 33.68672 | 2299 ft | 230 kts | 88° |
| 2026-04-30 20:00 | 34.91723 | 33.70578 | 2499 ft | 253 kts | 128° |
| 2026-04-30 20:01 | 34.88843 | 33.73243 | 3714 ft | 264 kts | 143° |
| 2026-04-30 20:01 | 34.87369 | 33.74578 | 4481 ft | 264 kts | 142° |
| 2026-04-30 20:01 | 34.85908 | 33.75956 | 5193 ft | 266 kts | 141° |
| 2026-04-30 20:02 | 34.82986 | 33.78808 | 6569 ft | 271 kts | 141° |
| 2026-04-30 20:02 | 34.81516 | 33.80270 | 7208 ft | 274 kts | 141° |
| 2026-04-30 20:03 | 34.78546 | 33.83249 | 8453 ft | 280 kts | 141° |
| 2026-04-30 20:03 | 34.77036 | 33.84767 | 9087 ft | 283 kts | 141° |
| 2026-04-30 20:03 | 34.75527 | 33.86284 | 9722 ft | 286 kts | 142° |
| 2026-04-30 20:03 | 34.73975 | 33.87826 | 10269 ft | 291 kts | 146° |
| 2026-04-30 20:04 | 34.72083 | 33.88830 | 10388 ft | 308 kts | 173° |
| 2026-04-30 20:04 | 34.69902 | 33.88668 | 10550 ft | 324 kts | 195° |
| 2026-04-30 20:04 | 34.67689 | 33.87863 | 10755 ft | 339 kts | 198° |
| 2026-04-30 20:05 | 34.63122 | 33.86036 | 11791 ft | 348 kts | 198° |
| 2026-04-30 20:05 | 34.60811 | 33.85125 | 12405 ft | 350 kts | 198° |
| 2026-04-30 20:05 | 34.56143 | 33.83323 | 13582 ft | 357 kts | 198° |
| 2026-04-30 20:06 | 34.53761 | 33.82415 | 14147 ft | 360 kts | 198° |
| 2026-04-30 20:06 | 34.51352 | 33.81499 | 14719 ft | 363 kts | 198° |
| 2026-04-30 20:06 | 34.48922 | 33.80597 | 15294 ft | 366 kts | 194° |
| 2026-04-30 20:06 | 34.46383 | 33.80309 | 15836 ft | 370 kts | 178° |
| 2026-04-30 20:07 | 34.43803 | 33.80512 | 16429 ft | 373 kts | 176° |
| 2026-04-30 20:07 | 34.41201 | 33.80751 | 16995 ft | 376 kts | 176° |
| 2026-04-30 20:07 | 34.35970 | 33.81222 | 18209 ft | 379 kts | 176° |
| 2026-04-30 20:08 | 34.33346 | 33.81442 | 18867 ft | 377 kts | 176° |
| 2026-04-30 20:08 | 34.30731 | 33.81653 | 19443 ft | 377 kts | 177° |
| 2026-04-30 20:08 | 34.28101 | 33.81860 | 19967 ft | 379 kts | 177° |
| 2026-04-30 20:08 | 34.25456 | 33.82066 | 20515 ft | 380 kts | 178° |
| 2026-04-30 20:09 | 34.22807 | 33.82271 | 20987 ft | 382 kts | 178° |
| 2026-04-30 20:09 | 34.20160 | 33.82475 | 20980 ft | 380 kts | 178° |
| 2026-04-30 20:09 | 34.14873 | 33.82884 | 21007 ft | 381 kts | 178° |
| 2026-04-30 20:10 | 34.09578 | 33.83293 | 21016 ft | 381 kts | 178° |
| 2026-04-30 20:10 | 34.06929 | 33.83497 | 21012 ft | 382 kts | 178° |
| 2026-04-30 20:10 | 34.04311 | 33.83699 | 21013 ft | 382 kts | 178° |
| 2026-04-30 20:11 | 33.99006 | 33.84109 | 21012 ft | 382 kts | 178° |
| 2026-04-30 20:11 | 33.96353 | 33.84316 | 21009 ft | 382 kts | 178° |
| 2026-04-30 20:11 | 33.93698 | 33.84522 | 21008 ft | 382 kts | 178° |
| 2026-04-30 20:12 | 33.88397 | 33.84935 | 21011 ft | 382 kts | 178° |
| 2026-04-30 20:12 | 33.85740 | 33.85141 | 21010 ft | 382 kts | 178° |
| 2026-04-30 20:12 | 33.83084 | 33.85347 | 21009 ft | 382 kts | 178° |
| 2026-04-30 20:13 | 33.80432 | 33.85552 | 21013 ft | 382 kts | 178° |
| 2026-04-30 20:13 | 33.77785 | 33.85757 | 21011 ft | 382 kts | 178° |
| 2026-04-30 20:13 | 33.75134 | 33.85962 | 21009 ft | 382 kts | 178° |
| 2026-04-30 20:13 | 33.72519 | 33.86164 | 21011 ft | 382 kts | 178° |
| 2026-04-30 20:14 | 33.69866 | 33.86370 | 21014 ft | 382 kts | 179° |
| 2026-04-30 20:14 | 33.67213 | 33.86575 | 21013 ft | 382 kts | 179° |
| 2026-04-30 20:14 | 33.64553 | 33.86781 | 21013 ft | 382 kts | 179° |
| 2026-04-30 20:14 | 33.61901 | 33.86985 | 21013 ft | 382 kts | 179° |
| 2026-04-30 20:15 | 33.59251 | 33.87190 | 21012 ft | 382 kts | 179° |
| 2026-04-30 20:15 | 33.56598 | 33.87395 | 21013 ft | 382 kts | 179° |
| 2026-04-30 20:15 | 33.53944 | 33.87599 | 21012 ft | 382 kts | 179° |
| 2026-04-30 20:15 | 33.51288 | 33.87804 | 21014 ft | 382 kts | 179° |
| 2026-04-30 20:16 | 33.48631 | 33.88009 | 21013 ft | 382 kts | 179° |
| 2026-04-30 20:16 | 33.45978 | 33.88213 | 21013 ft | 382 kts | 179° |
| 2026-04-30 20:16 | 33.43355 | 33.88415 | 21013 ft | 382 kts | 179° |
| 2026-04-30 20:16 | 33.40699 | 33.88619 | 21015 ft | 382 kts | 179° |
| 2026-04-30 20:17 | 33.38041 | 33.88824 | 21015 ft | 382 kts | 179° |
| 2026-04-30 20:17 | 33.35388 | 33.89027 | 21013 ft | 382 kts | 179° |
| 2026-04-30 20:17 | 33.32735 | 33.89231 | 21012 ft | 382 kts | 179° |
| 2026-04-30 20:17 | 33.30085 | 33.89434 | 21015 ft | 382 kts | 179° |
| 2026-04-30 20:18 | 33.27431 | 33.89638 | 21014 ft | 382 kts | 179° |
| 2026-04-30 20:18 | 33.24774 | 33.89842 | 21016 ft | 382 kts | 179° |
| 2026-04-30 20:18 | 33.22125 | 33.90045 | 21005 ft | 378 kts | 179° |
| 2026-04-30 20:18 | 33.19579 | 33.90241 | 20995 ft | 365 kts | 179° |
| 2026-04-30 20:19 | 33.17083 | 33.90431 | 20993 ft | 352 kts | 179° |
| 2026-04-30 20:19 | 33.15451 | 33.90553 | 20995 ft | 345 kts | 180° |
| 2026-04-30 20:19 | 33.12317 | 33.90785 | 21013 ft | 340 kts | 180° |
| 2026-04-30 20:19 | 33.09946 | 33.90957 | 21027 ft | 343 kts | 180° |
| 2026-04-30 20:20 | 33.07577 | 33.91130 | 21005 ft | 336 kts | 180° |
| 2026-04-30 20:20 | 33.05285 | 33.91300 | 20996 ft | 323 kts | 180° |
| 2026-04-30 20:20 | 33.03084 | 33.91465 | 20992 ft | 310 kts | 180° |
| 2026-04-30 20:20 | 33.00966 | 33.91623 | 20994 ft | 297 kts | 180° |
| 2026-04-30 20:21 | 32.98963 | 33.91772 | 20997 ft | 288 kts | 181° |
| 2026-04-30 20:21 | 32.96949 | 33.91918 | 21026 ft | 294 kts | 181° |
| 2026-04-30 20:21 | 32.94869 | 33.92065 | 21038 ft | 304 kts | 181° |
| 2026-04-30 20:21 | 32.92735 | 33.92219 | 21030 ft | 307 kts | 181° |
| 2026-04-30 20:22 | 32.90605 | 33.92375 | 21022 ft | 306 kts | 181° |
| 2026-04-30 20:22 | 32.88486 | 33.92532 | 21011 ft | 304 kts | 181° |
| 2026-04-30 20:22 | 32.86371 | 33.92688 | 20798 ft | 307 kts | 181° |
| 2026-04-30 20:22 | 32.84227 | 33.92845 | 20476 ft | 309 kts | 180° |
| 2026-04-30 20:23 | 32.82086 | 33.93002 | 20160 ft | 308 kts | 180° |
| 2026-04-30 20:23 | 32.79944 | 33.93160 | 19847 ft | 307 kts | 180° |
| 2026-04-30 20:23 | 32.77843 | 33.93315 | 19542 ft | 306 kts | 180° |
| 2026-04-30 20:23 | 32.75719 | 33.93471 | 19235 ft | 305 kts | 180° |
| 2026-04-30 20:24 | 32.73607 | 33.93626 | 18928 ft | 304 kts | 180° |
| 2026-04-30 20:24 | 32.71492 | 33.93781 | 18534 ft | 306 kts | 180° |
| 2026-04-30 20:24 | 32.69349 | 33.93937 | 18104 ft | 309 kts | 180° |
| 2026-04-30 20:24 | 32.67191 | 33.94095 | 17634 ft | 312 kts | 179° |
| 2026-04-30 20:25 | 32.62818 | 33.94418 | 16719 ft | 317 kts | 179° |
| 2026-04-30 20:25 | 32.60604 | 33.94581 | 16270 ft | 319 kts | 179° |
| 2026-04-30 20:26 | 32.56927 | 33.95080 | 15613 ft | 323 kts | 162° |
| 2026-04-30 20:26 | 32.53371 | 33.98285 | 14961 ft | 325 kts | 135° |
| 2026-04-30 20:26 | 32.51845 | 34.00225 | 14620 ft | 324 kts | 135° |
| 2026-04-30 20:27 | 32.48782 | 34.04129 | 13967 ft | 321 kts | 135° |
| 2026-04-30 20:27 | 32.45755 | 34.07921 | 13229 ft | 309 kts | 135° |
| 2026-04-30 20:28 | 32.42833 | 34.11566 | 12504 ft | 302 kts | 134° |
| 2026-04-30 20:28 | 32.40384 | 34.15624 | 11826 ft | 302 kts | 125° |
| 2026-04-30 20:29 | 32.38108 | 34.19763 | 11148 ft | 301 kts | 125° |
| 2026-04-30 20:30 | 32.34611 | 34.25930 | 10147 ft | 300 kts | 126° |
| 2026-04-30 20:30 | 32.31103 | 34.32035 | 9115 ft | 298 kts | 126° |
| 2026-04-30 20:31 | 32.27633 | 34.38057 | 8201 ft | 292 kts | 126° |
| 2026-04-30 20:32 | 32.24291 | 34.43847 | 7331 ft | 287 kts | 126° |
| 2026-04-30 20:32 | 32.22053 | 34.47715 | 6747 ft | 284 kts | 126° |
| 2026-04-30 20:33 | 32.20936 | 34.49639 | 6474 ft | 282 kts | 126° |
| 2026-04-30 20:33 | 32.18723 | 34.53450 | 5869 ft | 280 kts | 126° |
| 2026-04-30 20:33 | 32.17636 | 34.55320 | 5583 ft | 279 kts | 126° |
| 2026-04-30 20:34 | 32.15525 | 34.59144 | 5038 ft | 275 kts | 121° |
| 2026-04-30 20:34 | 32.13687 | 34.62911 | 4820 ft | 258 kts | 121° |
| 2026-04-30 20:35 | 32.12764 | 34.64790 | 4355 ft | 265 kts | 122° |
| 2026-04-30 20:35 | 32.11810 | 34.66656 | 3978 ft | 264 kts | 122° |
| 2026-04-30 20:35 | 32.09938 | 34.70254 | 3296 ft | 249 kts | 122° |
| 2026-04-30 20:36 | 32.09055 | 34.71955 | 2991 ft | 235 kts | 121° |
| 2026-04-30 20:36 | 32.08226 | 34.73551 | 2633 ft | 221 kts | 121° |
| 2026-04-30 20:36 | 32.06733 | 34.76430 | 2108 ft | 193 kts | 121° |
| 2026-04-30 20:37 | 32.06056 | 34.77734 | 1875 ft | 180 kts | 121° |
| 2026-04-30 20:37 | 32.05434 | 34.78935 | 1692 ft | 168 kts | 121° |
| 2026-04-30 20:37 | 32.04815 | 34.80129 | 1418 ft | 170 kts | 121° |
| 2026-04-30 20:37 | 32.04210 | 34.81296 | 1182 ft | 166 kts | 121° |
| 2026-04-30 20:38 | 32.03608 | 34.82458 | 967 ft | 164 kts | 121° |
| 2026-04-30 20:38 | 32.03017 | 34.83599 | 752 ft | 165 kts | 121° |
| 2026-04-30 20:38 | 32.02411 | 34.84770 | 531 ft | 165 kts | 121° |
| 2026-04-30 20:39 | 32.01231 | 34.87048 | 122 ft | 162 kts | 121° |
| 2026-04-30 20:39 | 32.00691 | 34.88076 | 116 ft | 127 kts | 121° |
| 2026-04-30 20:39 | 32.00356 | 34.88828 | 118 ft | 104 kts | 104° |
| 2026-04-30 20:40 | 32.00280 | 34.89181 | 118 ft | 96 kts | 104° |
| 2026-04-30 20:41 | 32.00182 | 34.89664 | 119 ft | 83 kts | 103° |
| 2026-04-30 20:41 | 32.00083 | 34.90168 | 117 ft | 76 kts | 103° |